Bromptonville, Canada
Current Conditions -  °F | °C
As of 12:00 PM on Tuesday 21 Oct 2014 (Local Time) from CYSC Reporting Station
Light Rain Light Rain  
Wind Chill: 44°   Ceiling: 4400
Heat Index: 46°   Visibility: 9mi
Dew Point: 43°   Wind: 6mph
Humidity: 87%   Direction: 50°NE
Pressure: 30.03"   Gusts: NA
Location:  45.47°N, 71.94°W
Report Text: CYSC 211600Z AUTO 05005KT 9SM -RA OVC044 08/06 A3003 RMK SLP178
Loading
Personal Weather Stations






























Interactive Weather Map
Tropical Storm Tracking
New forecast layout! Learn more

10-Day Weather Forecast

Advertisements
Track Severe Weather on mobile